Delta Ocean — SVAU9 — position and weather

sailwx.info

Track history (hours):
 
Tides and Currents Weather Stations Pressure Air Temp Water Temp Dewpoint Dewpoint Depression Visibility Wind Speed Wind Dir Waves Ship Positions

Delta Ocean

Last reported at 2015-May-11 02:31 UTC. Time now 2015-May-25 13:30 UTC.
Position N 31°28' E 032°20'.
Warning: this ship's position is 14 days out of date.

Length 274 m; draft 16.9 m.

Type: Ship (hazmat cat A). MMSI: 240958000.

Date/timePositionNaut miles runAvg speedWind from/ knotsBaromVisibWave heightAir tempDewpointWater temp
2015-May-11 02:31N 31°28' E 032°20'0 0.1
2015-May-11 01:07N 31°28' E 032°20'0 0.0
2015-May-10 20:07N 31°28' E 032°20'0 0.0
2015-May-10 19:31N 31°28' E 032°20'0 0.0
2015-May-10 18:31N 31°28' E 032°20'0 0.0
2015-May-10 16:31N 31°28' E 032°20'0 0.0
2015-May-10 15:31N 31°28' E 032°20'0 0.0
2015-May-10 14:31N 31°28' E 032°20'167 6.2
2015-May-09 11:33N 34°10' E 033°13'1110.8
2015-May-09 10:33N 34°20' E 033°16'9 8.9
2015-May-09 09:33N 34°29' E 033°18'0 0.1
2015-May-09 08:34N 34°29' E 033°18'0 0.1
2015-May-09 07:34N 34°29' E 033°18'0 0.2
2015-May-09 06:34N 34°29' E 033°19'0 0.2
2015-May-09 05:33N 34°29' E 033°19'0 0.2
2015-May-09 04:33N 34°29' E 033°19'0 0.2
2015-May-09 03:34N 34°29' E 033°19'0 0.3
2015-May-09 02:34N 34°29' E 033°20'0 0.4
2015-May-09 01:34N 34°29' E 033°20'0 0.3
2015-May-09 00:34N 34°29' E 033°20'0 0.3
2015-May-08 23:34N 34°29' E 033°21'0 0.4
2015-May-08 22:34N 34°30' E 033°21'0 0.2
2015-May-08 21:34N 34°30' E 033°21'0 0.2
2015-May-08 20:34N 34°30' E 033°21'0 0.2
2015-May-08 19:33N 34°30' E 033°21'0 0.2
2015-May-08 18:34N 34°31' E 033°21'0 0.3
2015-May-08 17:33N 34°31' E 033°21'0 0.4
2015-May-08 16:33N 34°31' E 033°21'0 0.3
2015-May-08 15:33N 34°31' E 033°21'2 1.8
2015-May-08 14:34N 34°30' E 033°21'2 2.3
2015-May-08 13:33N 34°28' E 033°19'0 0.3
2015-May-08 12:33N 34°28' E 033°19'0 0.2
2015-May-08 11:33N 34°28' E 033°18'0 0.2
2015-May-08 10:33N 34°28' E 033°18'0 0.1
2015-May-08 09:33N 34°28' E 033°18'0 0.2
2015-May-08 08:32N 34°28' E 033°18'1 0.8
2015-May-08 07:33N 34°28' E 033°19'3 2.6
2015-May-08 06:34N 34°29' E 033°22'3 3.0
2015-May-08 05:34N 34°29' E 033°26'1 1.1
2015-May-08 04:33N 34°28' E 033°25'5 4.8
2015-May-08 03:33N 34°27' E 033°20'3 3.0
2015-May-08 02:34N 34°27' E 033°16'0 0.2
2015-May-08 01:33N 34°27' E 033°16'0 0.3
2015-May-08 00:34N 34°27' E 033°16'0 0.3
2015-May-07 23:34N 34°28' E 033°16'0 0.3
2015-May-07 22:33N 34°28' E 033°16'0 0.3
2015-May-07 21:33N 34°28' E 033°16'0 0.2
2015-May-07 20:34N 34°28' E 033°16'0 0.3
2015-May-07 19:34N 34°29' E 033°16'0 0.4
2015-May-07 18:34N 34°29' E 033°16'0 0.5
2015-May-07 17:34N 34°30' E 033°16'1 0.7
2015-May-07 16:34N 34°29' E 033°17'3 3.2
2015-May-07 15:33N 34°30' E 033°21'0 0.3
2015-May-07 14:34N 34°30' E 033°21'0 0.3
2015-May-07 13:34N 34°30' E 033°21'0 0.1
2015-May-07 12:33N 34°31' E 033°21'0 0.1
2015-May-07 11:34N 34°31' E 033°22'0 0.3
2015-May-07 10:34N 34°31' E 033°22'0 0.4
2015-May-07 09:33N 34°31' E 033°22'0 0.4
2015-May-07 08:34N 34°31' E 033°23'0 0.4
2015-May-07 07:34N 34°32' E 033°23'0 0.4
2015-May-07 06:33N 34°32' E 033°24'0 0.2
2015-May-07 05:34N 34°32' E 033°24'0 0.2
2015-May-07 04:33N 34°32' E 033°24'0 0.3
2015-May-07 03:33N 34°32' E 033°24'0 0.2
2015-May-07 02:34N 34°32' E 033°25'0 0.2
2015-May-07 01:33N 34°32' E 033°25'0 0.2
2015-May-07 00:34N 34°32' E 033°25'0 0.3
2015-May-06 23:33N 34°32' E 033°26'0 0.3
2015-May-06 22:33N 34°32' E 033°26'0 0.3
2015-May-06 21:34N 34°32' E 033°26'1 0.5
2015-May-06 20:34N 34°32' E 033°27'1 1.0
2015-May-06 19:33N 34°31' E 033°27'5 4.7
2015-May-06 18:30N 34°30' E 033°21'3 2.7
2015-May-06 17:33N 34°29' E 033°18'1 1.1
2015-May-06 16:34N 34°30' E 033°17'0 0.4
2015-May-06 15:33N 34°30' E 033°17'3 2.7
2015-May-06 14:33N 34°28' E 033°20'1 0.9
2015-May-06 13:19N 34°28' E 033°19'0 0.4
2015-May-06 12:33N 34°29' E 033°19'0 0.3
2015-May-06 11:33N 34°29' E 033°18'0 0.2
2015-May-06 10:33N 34°29' E 033°18'0 0.1
2015-May-06 09:33N 34°29' E 033°18'0 0.2
2015-May-06 08:33N 34°29' E 033°18'0 0.1
2015-May-06 07:32N 34°29' E 033°17'1 0.6
2015-May-06 06:32N 34°28' E 033°18'4 3.7
2015-May-06 05:34N 34°28' E 033°22'5 4.7
2015-May-06 04:34N 34°28' E 033°28'2 1.7
2015-May-06 03:33N 34°28' E 033°30'0 0.1
2015-May-06 02:34N 34°28' E 033°30'0 0.2
2015-May-06 01:32N 34°28' E 033°30'0 0.3
2015-May-06 00:33N 34°28' E 033°30'0 0.3
2015-May-05 23:33N 34°28' E 033°30'0 0.4
2015-May-05 22:32N 34°29' E 033°30'0 0.5
2015-May-05 21:33N 34°29' E 033°30'1 0.5
2015-May-05 20:34N 34°30' E 033°30'1 0.6
2015-May-05 19:34N 34°30' E 033°30'1 0.6
2015-May-05 18:34N 34°31' E 033°30'1 0.6
2015-May-05 17:34N 34°31' E 033°30'0 0.5
2015-May-05 16:34N 34°32' E 033°30'0 0.5
2015-May-05 15:34N 34°32' E 033°29'0 0.4
2015-May-05 14:34N 34°32' E 033°29'1 0.8
2015-May-05 13:34N 34°32' E 033°28'4 4.5
2015-May-05 12:33N 34°31' E 033°23'4 3.6
2015-May-05 11:33N 34°31' E 033°19'0 0.2
2015-May-05 10:33N 34°31' E 033°18'0 0.3
2015-May-05 09:34N 34°30' E 033°18'1 0.5
2015-May-05 08:34N 34°30' E 033°18'1 0.6
2015-May-05 07:34N 34°29' E 033°17'1 1.0
2015-May-05 06:33N 34°28' E 033°17'3 3.3
2015-May-05 05:34N 34°29' E 033°21'5 4.9
2015-May-05 04:34N 34°30' E 033°27'2 2.2
2015-May-05 03:33N 34°31' E 033°29'0 0.4
2015-May-05 02:34N 34°31' E 033°30'0 0.3
2015-May-05 01:34N 34°31' E 033°30'0 0.2
2015-May-05 00:34N 34°31' E 033°30'0 0.2
2015-May-04 23:33N 34°31' E 033°30'0 0.1
2015-May-04 22:33N 34°31' E 033°30'0 0.1
2015-May-04 21:34N 34°32' E 033°30'0 0.4
2015-May-04 20:34N 34°31' E 033°30'1 0.6
2015-May-04 19:34N 34°31' E 033°29'1 0.7
2015-May-04 18:33N 34°31' E 033°28'1 0.8
2015-May-04 17:33N 34°31' E 033°27'1 0.8
2015-May-04 16:34N 34°30' E 033°27'1 0.7
2015-May-04 15:33N 34°30' E 033°26'0 0.4
2015-May-04 14:34N 34°30' E 033°25'0 0.2
2015-May-04 13:33N 34°30' E 033°25'0 0.1
2015-May-04 12:33N 34°30' E 033°25'0 0.1
2015-May-04 11:34N 34°30' E 033°25'0 0.1
2015-May-04 10:33N 34°30' E 033°25'1 0.9
2015-May-04 09:33N 34°30' E 033°24'2 1.9
2015-May-04 08:33N 34°31' E 033°22'1 0.9
2015-May-04 07:34N 34°31' E 033°23'4 4.2
2015-May-04 06:34N 34°32' E 033°27'1 0.9
2015-May-04 05:33N 34°32' E 033°28'5 5.0
2015-May-04 04:34N 34°31' E 033°22'4 4.3
2015-May-04 03:34N 34°30' E 033°17'1 0.7
2015-May-04 02:34N 34°30' E 033°16'10 9.7
2015-May-04 01:33N 34°27' E 033°05'1413.9
2015-May-04 00:34N 34°26' E 032°48'1413.9
2015-May-03 23:33N 34°28' E 032°32'1814.4
2015-May-03 22:20N 34°31' E 032°11'4514.7
2015-May-03 19:18N 34°38' E 031°17'1614.6
2015-May-03 18:12N 34°41' E 030°58'18514.6
2015-May-03 05:33N 35°10' E 027°15'9114.2
2015-May-02 23:11N 35°42' E 025°31'1014.3
2015-May-02 22:30N 35°45' E 025°20'1414.4
2015-May-02 21:33N 35°48' E 025°03'1514.6
2015-May-02 20:32N 35°53' E 024°46'3514.8
2015-May-02 18:09N 36°04' E 024°05'43613.0
2015-May-01 08:33N 36°23' E 015°04'1514.8
2015-May-01 07:33N 36°23' E 014°46'1414.3
2015-May-01 06:33N 36°24' E 014°29'1414.4
2015-May-01 05:33N 36°29' E 014°12'1414.3
2015-May-01 04:33N 36°36' E 013°56'1514.6
2015-May-01 03:33N 36°41' E 013°39'1514.7
2015-May-01 02:33N 36°47' E 013°22'  
Track history (hours):
 
Tides and Currents Weather Stations Pressure Air Temp Water Temp Dewpoint Dewpoint Depression Visibility Wind Speed Wind Dir Waves Ship Positions

Delta Ocean

Last reported at 2015-May-11 02:31 UTC. Time now 2015-May-25 13:30 UTC.
Position N 31°28' E 032°20'.
Warning: this ship's position is 14 days out of date.

Length 274 m; draft 16.9 m.

Type: Ship (hazmat cat A). MMSI: 240958000.

Date/timePositionNaut miles runAvg speedWind from/ knotsBaromVisibWave heightAir tempDewpointWater temp
2015-May-11 02:31N 31°28' E 032°20'0 0.1
2015-May-11 01:07N 31°28' E 032°20'0 0.0
2015-May-10 20:07N 31°28' E 032°20'0 0.0
2015-May-10 19:31N 31°28' E 032°20'0 0.0
2015-May-10 18:31N 31°28' E 032°20'0 0.0
2015-May-10 16:31N 31°28' E 032°20'0 0.0
2015-May-10 15:31N 31°28' E 032°20'0 0.0
2015-May-10 14:31N 31°28' E 032°20'167 6.2
2015-May-09 11:33N 34°10' E 033°13'1110.8
2015-May-09 10:33N 34°20' E 033°16'9 8.9
2015-May-09 09:33N 34°29' E 033°18'0 0.1
2015-May-09 08:34N 34°29' E 033°18'0 0.1
2015-May-09 07:34N 34°29' E 033°18'0 0.2
2015-May-09 06:34N 34°29' E 033°19'0 0.2
2015-May-09 05:33N 34°29' E 033°19'0 0.2
2015-May-09 04:33N 34°29' E 033°19'0 0.2
2015-May-09 03:34N 34°29' E 033°19'0 0.3
2015-May-09 02:34N 34°29' E 033°20'0 0.4
2015-May-09 01:34N 34°29' E 033°20'0 0.3
2015-May-09 00:34N 34°29' E 033°20'0 0.3
2015-May-08 23:34N 34°29' E 033°21'0 0.4
2015-May-08 22:34N 34°30' E 033°21'0 0.2
2015-May-08 21:34N 34°30' E 033°21'0 0.2
2015-May-08 20:34N 34°30' E 033°21'0 0.2
2015-May-08 19:33N 34°30' E 033°21'0 0.2
2015-May-08 18:34N 34°31' E 033°21'0 0.3
2015-May-08 17:33N 34°31' E 033°21'0 0.4
2015-May-08 16:33N 34°31' E 033°21'0 0.3
2015-May-08 15:33N 34°31' E 033°21'2 1.8
2015-May-08 14:34N 34°30' E 033°21'2 2.3
2015-May-08 13:33N 34°28' E 033°19'0 0.3
2015-May-08 12:33N 34°28' E 033°19'0 0.2
2015-May-08 11:33N 34°28' E 033°18'0 0.2
2015-May-08 10:33N 34°28' E 033°18'0 0.1
2015-May-08 09:33N 34°28' E 033°18'0 0.2
2015-May-08 08:32N 34°28' E 033°18'1 0.8
2015-May-08 07:33N 34°28' E 033°19'3 2.6
2015-May-08 06:34N 34°29' E 033°22'3 3.0
2015-May-08 05:34N 34°29' E 033°26'1 1.1
2015-May-08 04:33N 34°28' E 033°25'5 4.8
2015-May-08 03:33N 34°27' E 033°20'3 3.0
2015-May-08 02:34N 34°27' E 033°16'0 0.2
2015-May-08 01:33N 34°27' E 033°16'0 0.3
2015-May-08 00:34N 34°27' E 033°16'0 0.3
2015-May-07 23:34N 34°28' E 033°16'0 0.3
2015-May-07 22:33N 34°28' E 033°16'0 0.3
2015-May-07 21:33N 34°28' E 033°16'0 0.2
2015-May-07 20:34N 34°28' E 033°16'0 0.3
2015-May-07 19:34N 34°29' E 033°16'0 0.4
2015-May-07 18:34N 34°29' E 033°16'0 0.5
2015-May-07 17:34N 34°30' E 033°16'1 0.7
2015-May-07 16:34N 34°29' E 033°17'3 3.2
2015-May-07 15:33N 34°30' E 033°21'0 0.3
2015-May-07 14:34N 34°30' E 033°21'0 0.3
2015-May-07 13:34N 34°30' E 033°21'0 0.1
2015-May-07 12:33N 34°31' E 033°21'0 0.1
2015-May-07 11:34N 34°31' E 033°22'0 0.3
2015-May-07 10:34N 34°31' E 033°22'0 0.4
2015-May-07 09:33N 34°31' E 033°22'0 0.4
2015-May-07 08:34N 34°31' E 033°23'0 0.4
2015-May-07 07:34N 34°32' E 033°23'0 0.4
2015-May-07 06:33N 34°32' E 033°24'0 0.2
2015-May-07 05:34N 34°32' E 033°24'0 0.2
2015-May-07 04:33N 34°32' E 033°24'0 0.3
2015-May-07 03:33N 34°32' E 033°24'0 0.2
2015-May-07 02:34N 34°32' E 033°25'0 0.2
2015-May-07 01:33N 34°32' E 033°25'0 0.2
2015-May-07 00:34N 34°32' E 033°25'0 0.3
2015-May-06 23:33N 34°32' E 033°26'0 0.3
2015-May-06 22:33N 34°32' E 033°26'0 0.3
2015-May-06 21:34N 34°32' E 033°26'1 0.5
2015-May-06 20:34N 34°32' E 033°27'1 1.0
2015-May-06 19:33N 34°31' E 033°27'5 4.7
2015-May-06 18:30N 34°30' E 033°21'3 2.7
2015-May-06 17:33N 34°29' E 033°18'1 1.1
2015-May-06 16:34N 34°30' E 033°17'0 0.4
2015-May-06 15:33N 34°30' E 033°17'3 2.7
2015-May-06 14:33N 34°28' E 033°20'1 0.9
2015-May-06 13:19N 34°28' E 033°19'0 0.4
2015-May-06 12:33N 34°29' E 033°19'0 0.3
2015-May-06 11:33N 34°29' E 033°18'0 0.2
2015-May-06 10:33N 34°29' E 033°18'0 0.1
2015-May-06 09:33N 34°29' E 033°18'0 0.2
2015-May-06 08:33N 34°29' E 033°18'0 0.1
2015-May-06 07:32N 34°29' E 033°17'1 0.6
2015-May-06 06:32N 34°28' E 033°18'4 3.7
2015-May-06 05:34N 34°28' E 033°22'5 4.7
2015-May-06 04:34N 34°28' E 033°28'2 1.7
2015-May-06 03:33N 34°28' E 033°30'0 0.1
2015-May-06 02:34N 34°28' E 033°30'0 0.2
2015-May-06 01:32N 34°28' E 033°30'0 0.3
2015-May-06 00:33N 34°28' E 033°30'0 0.3
2015-May-05 23:33N 34°28' E 033°30'0 0.4
2015-May-05 22:32N 34°29' E 033°30'0 0.5
2015-May-05 21:33N 34°29' E 033°30'1 0.5
2015-May-05 20:34N 34°30' E 033°30'1 0.6
2015-May-05 19:34N 34°30' E 033°30'1 0.6
2015-May-05 18:34N 34°31' E 033°30'1 0.6
2015-May-05 17:34N 34°31' E 033°30'0 0.5
2015-May-05 16:34N 34°32' E 033°30'0 0.5
2015-May-05 15:34N 34°32' E 033°29'0 0.4
2015-May-05 14:34N 34°32' E 033°29'1 0.8
2015-May-05 13:34N 34°32' E 033°28'4 4.5
2015-May-05 12:33N 34°31' E 033°23'4 3.6
2015-May-05 11:33N 34°31' E 033°19'0 0.2
2015-May-05 10:33N 34°31' E 033°18'0 0.3
2015-May-05 09:34N 34°30' E 033°18'1 0.5
2015-May-05 08:34N 34°30' E 033°18'1 0.6
2015-May-05 07:34N 34°29' E 033°17'1 1.0
2015-May-05 06:33N 34°28' E 033°17'3 3.3
2015-May-05 05:34N 34°29' E 033°21'5 4.9
2015-May-05 04:34N 34°30' E 033°27'2 2.2
2015-May-05 03:33N 34°31' E 033°29'0 0.4
2015-May-05 02:34N 34°31' E 033°30'0 0.3
2015-May-05 01:34N 34°31' E 033°30'0 0.2
2015-May-05 00:34N 34°31' E 033°30'0 0.2
2015-May-04 23:33N 34°31' E 033°30'0 0.1
2015-May-04 22:33N 34°31' E 033°30'0 0.1
2015-May-04 21:34N 34°32' E 033°30'0 0.4
2015-May-04 20:34N 34°31' E 033°30'1 0.6
2015-May-04 19:34N 34°31' E 033°29'1 0.7
2015-May-04 18:33N 34°31' E 033°28'1 0.8
2015-May-04 17:33N 34°31' E 033°27'1 0.8
2015-May-04 16:34N 34°30' E 033°27'1 0.7
2015-May-04 15:33N 34°30' E 033°26'0 0.4
2015-May-04 14:34N 34°30' E 033°25'0 0.2
2015-May-04 13:33N 34°30' E 033°25'0 0.1
2015-May-04 12:33N 34°30' E 033°25'0 0.1
2015-May-04 11:34N 34°30' E 033°25'0 0.1
2015-May-04 10:33N 34°30' E 033°25'1 0.9
2015-May-04 09:33N 34°30' E 033°24'2 1.9
2015-May-04 08:33N 34°31' E 033°22'1 0.9
2015-May-04 07:34N 34°31' E 033°23'4 4.2
2015-May-04 06:34N 34°32' E 033°27'1 0.9
2015-May-04 05:33N 34°32' E 033°28'5 5.0
2015-May-04 04:34N 34°31' E 033°22'4 4.3
2015-May-04 03:34N 34°30' E 033°17'1 0.7
2015-May-04 02:34N 34°30' E 033°16'10 9.7
2015-May-04 01:33N 34°27' E 033°05'1413.9
2015-May-04 00:34N 34°26' E 032°48'1413.9
2015-May-03 23:33N 34°28' E 032°32'1814.4
2015-May-03 22:20N 34°31' E 032°11'4514.7
2015-May-03 19:18N 34°38' E 031°17'1614.6
2015-May-03 18:12N 34°41' E 030°58'18514.6
2015-May-03 05:33N 35°10' E 027°15'9114.2
2015-May-02 23:11N 35°42' E 025°31'1014.3
2015-May-02 22:30N 35°45' E 025°20'1414.4
2015-May-02 21:33N 35°48' E 025°03'1514.6
2015-May-02 20:32N 35°53' E 024°46'3514.8
2015-May-02 18:09N 36°04' E 024°05'43613.0
2015-May-01 08:33N 36°23' E 015°04'1514.8
2015-May-01 07:33N 36°23' E 014°46'1414.3
2015-May-01 06:33N 36°24' E 014°29'1414.4
2015-May-01 05:33N 36°29' E 014°12'1414.3
2015-May-01 04:33N 36°36' E 013°56'1514.6
2015-May-01 03:33N 36°41' E 013°39'1514.7
2015-May-01 02:33N 36°47' E 013°22'  

Dump ship's entire track history